Time;durP1;ratioP1;P1;durP2;ratioP2;P2;SDS_P1;SDS_P2;PMS_P1;PMS_P2;Temp;Humidity;BMP_temperature;BMP_pressure;BME280_temperature;BME280_humidity;BME280_pressure;Samples;Min_cycle;Max_cycle;Signal;HPM_P1;HPM_P2
2022/11/19 00:04:00;;;;;;;13.20;6.70;;;;;;;-2.18;83.08;97889.67;214046;1310;22592;-70
2022/11/19 00:09:04;;;;;;;14.80;6.80;;;;;;;-2.20;83.20;97893.30;214553;1300;22498;-70
2022/11/19 00:14:11;;;;;;;16.10;6.90;;;;;;;-2.23;83.11;97888.42;214586;1310;22478;-70
2022/11/19 00:19:13;;;;;;;14.40;6.90;;;;;;;-2.25;82.93;97887.08;214577;1310;22482;-70
2022/11/19 00:24:15;;;;;;;14.50;7.30;;;;;;;-2.24;83.27;97898.11;214414;1309;24163;-70
2022/11/19 00:29:17;;;;;;;13.00;6.50;;;;;;;-2.23;82.92;97904.84;214600;1310;22492;-70
2022/11/19 00:34:21;;;;;;;12.20;6.80;;;;;;;-2.23;82.82;97902.79;214722;1296;22474;-71
2022/11/19 00:39:23;;;;;;;15.80;7.20;;;;;;;-2.26;82.87;97904.16;214314;1305;22636;-70
2022/11/19 00:44:25;;;;;;;15.30;6.80;;;;;;;-2.29;82.98;97909.86;214400;1310;22508;-71
2022/11/19 00:49:27;;;;;;;13.00;6.70;;;;;;;-2.29;83.24;97910.80;214572;1310;22472;-71
2022/11/19 00:54:29;;;;;;;14.10;6.80;;;;;;;-2.30;83.14;97912.83;214562;1301;22517;-71
2022/11/19 00:59:31;;;;;;;12.30;6.00;;;;;;;-2.30;83.24;97910.66;214543;1305;22539;-71
2022/11/19 01:04:33;;;;;;;12.70;6.60;;;;;;;-2.29;83.16;97920.42;214713;1310;24330;-71
2022/11/19 01:09:35;;;;;;;14.30;7.60;;;;;;;-2.28;83.26;97927.45;214533;1304;22603;-69
2022/11/19 01:14:37;;;;;;;13.90;6.60;;;;;;;-2.28;83.51;97934.67;214519;1309;22535;-70
2022/11/19 01:19:39;;;;;;;9.10;5.70;;;;;;;-2.30;83.24;97945.27;214417;1290;25368;-71
2022/11/19 01:24:40;;;;;;;11.90;5.90;;;;;;;-2.32;83.42;97938.89;214433;1310;25118;-70
2022/11/19 01:29:42;;;;;;;13.00;6.10;;;;;;;-2.30;83.44;97942.66;214283;1310;25457;-71
2022/11/19 01:34:44;;;;;;;12.30;6.20;;;;;;;-2.29;83.28;97950.19;214391;1310;22538;-70
2022/11/19 01:39:46;;;;;;;11.50;5.80;;;;;;;-2.28;83.30;97950.16;214779;1305;22521;-70
2022/11/19 01:45:01;;;;;;;10.10;6.30;;;;;;;-2.26;83.32;97940.34;214641;1310;22629;-70
2022/11/19 01:50:04;;;;;;;13.10;6.00;;;;;;;-2.27;83.09;97946.11;214364;1309;25581;-70
2022/11/19 01:55:07;;;;;;;9.80;5.20;;;;;;;-2.28;83.11;97952.31;214189;1309;22475;-71
2022/11/19 02:00:10;;;;;;;10.70;6.00;;;;;;;-2.30;83.23;97948.34;214516;1310;22640;-70
2022/11/19 02:05:12;;;;;;;8.60;5.00;;;;;;;-2.30;82.93;97948.55;214599;1310;24228;-70
2022/11/19 02:10:14;;;;;;;8.70;4.50;;;;;;;-2.31;82.99;97950.61;214498;1287;24253;-70
2022/11/19 02:15:22;;;;;;;9.00;5.20;;;;;;;-2.31;82.73;97943.80;214740;1309;23208;-72
2022/11/19 02:20:32;;;;;;;8.30;4.70;;;;;;;-2.30;82.80;97949.02;214364;1310;25421;-69
2022/11/19 02:25:37;;;;;;;10.60;5.20;;;;;;;-2.29;82.87;97964.27;214624;1309;22596;-70
2022/11/19 02:30:45;;;;;;;11.60;6.50;;;;;;;-2.29;82.68;97976.05;214495;1284;24211;-70
2022/11/19 02:35:57;;;;;;;15.70;7.20;;;;;;;-2.31;83.08;97984.29;214556;1309;22562;-70
2022/11/19 02:46:33;;;;;;;18.50;8.70;;;;;;;-2.36;83.62;97990.58;214456;1309;22544;-70
2022/11/19 02:51:35;;;;;;;16.20;8.00;;;;;;;-2.41;84.14;97992.48;214499;1309;22580;-69
2022/11/19 02:56:50;;;;;;;18.70;9.30;;;;;;;-2.43;84.21;97998.85;214524;1298;22565;-72
2022/11/19 03:07:17;;;;;;;22.90;10.00;;;;;;;-2.49;84.48;97990.75;214826;1310;24228;-71
2022/11/19 03:12:34;;;;;;;19.50;9.80;;;;;;;-2.54;84.74;98000.17;214582;1310;24308;-69
2022/11/19 03:18:08;;;;;;;15.20;8.20;;;;;;;-2.59;84.81;98007.98;214760;1310;22482;-70
2022/11/19 03:23:25;;;;;;;18.30;9.10;;;;;;;-2.62;85.21;98007.00;214597;1310;25214;-73
2022/11/19 03:28:33;;;;;;;22.60;9.80;;;;;;;-2.59;85.25;98020.57;214636;1301;24189;-68
2022/11/19 03:33:46;;;;;;;21.20;9.80;;;;;;;-2.56;85.51;98020.33;214816;1309;25491;-71
2022/11/19 03:39:03;;;;;;;19.10;10.60;;;;;;;-2.55;85.61;98025.23;214395;1310;25531;-71
2022/11/19 03:44:17;;;;;;;20.70;10.10;;;;;;;-2.54;85.62;98031.48;214511;1309;25289;-70
2022/11/19 03:49:30;;;;;;;20.80;9.80;;;;;;;-2.57;85.61;98037.66;214214;1309;22627;-68
2022/11/19 03:54:33;;;;;;;20.60;10.70;;;;;;;-2.64;85.47;98050.80;214508;1305;22474;-70
2022/11/19 03:59:35;;;;;;;23.90;11.10;;;;;;;-2.67;85.76;98054.77;214363;1310;22600;-71
2022/11/19 04:04:37;;;;;;;31.40;13.30;;;;;;;-2.69;86.25;98053.42;214419;1310;22598;-71
2022/11/19 04:09:40;;;;;;;24.50;12.10;;;;;;;-2.74;86.16;98060.65;214551;1310;24124;-69
2022/11/19 04:14:42;;;;;;;30.10;12.50;;;;;;;-2.77;86.15;98067.94;214594;1310;22655;-69
2022/11/19 04:19:45;;;;;;;21.60;11.30;;;;;;;-2.79;86.67;98071.11;214943;1307;24422;-70
2022/11/19 04:24:47;;;;;;;19.80;9.90;;;;;;;-2.79;86.35;98075.54;214433;1310;22508;-69
2022/11/19 04:29:49;;;;;;;19.90;10.00;;;;;;;-2.79;86.72;98079.85;214467;1309;22497;-69
2022/11/19 04:34:51;;;;;;;18.10;10.20;;;;;;;-2.76;86.81;98074.05;214734;1310;22485;-70
2022/11/19 04:39:52;;;;;;;18.70;8.90;;;;;;;-2.74;87.05;98084.77;214719;1310;22985;-71
2022/11/19 04:44:54;;;;;;;18.90;8.30;;;;;;;-2.71;87.21;98090.61;214676;1310;22546;-70
2022/11/19 04:49:56;;;;;;;15.30;7.70;;;;;;;-2.66;87.30;98098.67;214791;1310;24273;-71
2022/11/19 04:54:58;;;;;;;16.00;7.80;;;;;;;-2.61;87.52;98101.54;214729;1297;25565;-69
2022/11/19 05:00:00;;;;;;;19.30;8.80;;;;;;;-2.59;87.55;98104.70;214628;1310;24360;-69
2022/11/19 05:05:02;;;;;;;18.10;7.90;;;;;;;-2.59;87.38;98108.33;214534;1310;26700;-69
2022/11/19 05:10:04;;;;;;;16.80;8.60;;;;;;;-2.57;87.60;98114.80;214539;1303;22474;-73
2022/11/19 05:15:07;;;;;;;21.10;9.80;;;;;;;-2.55;87.89;98119.95;214851;1310;24459;-71
2022/11/19 05:20:09;;;;;;;19.10;9.20;;;;;;;-2.51;87.77;98117.06;214644;1310;22501;-69
2022/11/19 05:25:11;;;;;;;14.80;8.10;;;;;;;-2.49;87.72;98123.95;214608;1310;22521;-69
2022/11/19 05:30:14;;;;;;;18.80;9.10;;;;;;;-2.46;88.08;98129.52;214587;1310;24461;-69
2022/11/19 05:35:16;;;;;;;22.30;10.30;;;;;;;-2.43;88.04;98137.23;214879;1309;23789;-70
2022/11/19 05:40:17;;;;;;;17.60;9.20;;;;;;;-2.43;87.97;98144.27;214764;1310;25572;-70
2022/11/19 05:45:19;;;;;;;16.80;8.20;;;;;;;-2.43;87.93;98157.17;214591;1309;22560;-70
2022/11/19 05:50:21;;;;;;;21.10;8.80;;;;;;;-2.47;87.81;98157.86;214714;1303;24423;-72
2022/11/19 05:55:23;;;;;;;18.20;9.00;;;;;;;-2.47;88.23;98167.67;214589;1309;22488;-70
2022/11/19 06:00:25;;;;;;;17.20;8.80;;;;;;;-2.46;88.09;98173.55;214460;1304;22606;-70
2022/11/19 06:05:27;;;;;;;20.10;9.50;;;;;;;-2.48;88.35;98181.23;214955;1310;22600;-70
2022/11/19 06:10:29;;;;;;;22.50;10.70;;;;;;;-2.46;88.44;98190.09;214761;1308;22518;-70
2022/11/19 06:15:31;;;;;;;17.00;8.00;;;;;;;-2.45;88.59;98197.27;214824;1309;22595;-70
2022/11/19 06:20:33;;;;;;;22.70;11.20;;;;;;;-2.46;88.59;98207.20;214737;1303;22626;-69
2022/11/19 06:25:35;;;;;;;19.70;10.20;;;;;;;-2.44;88.68;98221.11;214572;1289;22945;-69
2022/11/19 06:30:37;;;;;;;23.60;11.10;;;;;;;-2.42;88.71;98226.17;214616;1310;22594;-72
2022/11/19 06:35:38;;;;;;;24.70;11.00;;;;;;;-2.37;88.67;98230.36;214398;1309;22550;-69
2022/11/19 06:40:41;;;;;;;19.50;9.60;;;;;;;-2.35;88.56;98234.75;214268;1306;22474;-69
2022/11/19 06:45:43;;;;;;;24.80;11.60;;;;;;;-2.33;88.98;98239.05;214742;1292;22452;-69
2022/11/19 06:50:45;;;;;;;21.10;11.10;;;;;;;-2.29;88.92;98247.42;214852;1307;23359;-69
2022/11/19 06:55:47;;;;;;;19.60;10.30;;;;;;;-2.25;89.02;98250.73;214477;1310;25462;-72
2022/11/19 07:00:49;;;;;;;21.80;11.40;;;;;;;-2.27;88.88;98249.27;214377;1306;23893;-70
2022/11/19 07:05:57;;;;;;;25.40;11.10;;;;;;;-2.25;88.82;98254.46;214323;1309;22649;-70
2022/11/19 07:11:24;;;;;;;22.20;11.00;;;;;;;-2.23;88.72;98259.08;214233;1297;25517;-71
2022/11/19 07:16:32;;;;;;;23.30;11.70;;;;;;;-2.20;88.83;98266.45;214619;1310;22484;-70
2022/11/19 07:21:35;;;;;;;23.40;11.40;;;;;;;-2.18;88.96;98268.67;214416;1310;22617;-69
2022/11/19 07:26:37;;;;;;;28.40;14.60;;;;;;;-2.17;88.84;98272.80;214400;1309;23324;-70
2022/11/19 07:31:39;;;;;;;26.40;12.40;;;;;;;-2.15;88.73;98272.67;214670;1301;23226;-69
2022/11/19 07:36:41;;;;;;;26.20;13.10;;;;;;;-2.12;89.05;98274.59;214593;1310;23071;-71
2022/11/19 07:47:07;;;;;;;25.60;12.20;;;;;;;-2.02;88.94;98271.07;214513;1290;22463;-70
2022/11/19 07:52:08;;;;;;;23.30;12.00;;;;;;;-1.96;88.82;98269.45;214864;1287;22912;-71
2022/11/19 07:57:11;;;;;;;20.70;11.40;;;;;;;-1.91;89.03;98272.64;214663;1291;24372;-72
2022/11/19 08:02:13;;;;;;;21.10;10.90;;;;;;;-1.87;88.79;98281.52;214928;1295;22480;-71
2022/11/19 08:07:15;;;;;;;21.60;11.30;;;;;;;-1.84;88.97;98284.38;215117;1286;25390;-74
2022/11/19 08:12:18;;;;;;;18.10;10.80;;;;;;;-1.78;88.93;98287.60;214825;1284;22456;-71
2022/11/19 08:22:41;;;;;;;20.00;11.20;;;;;;;-1.72;88.66;98287.31;214801;1278;22488;-72
2022/11/19 08:27:43;;;;;;;18.80;10.90;;;;;;;-1.64;88.68;98286.14;214787;1294;25312;-70
2022/11/19 08:32:45;;;;;;;19.60;10.00;;;;;;;-1.57;88.44;98286.77;214817;1287;22516;-70
2022/11/19 08:37:47;;;;;;;22.10;11.50;;;;;;;-1.46;88.39;98290.89;214676;1288;24360;-71
2022/11/19 08:42:58;;;;;;;24.00;10.70;;;;;;;-1.30;88.32;98298.30;214694;1310;23803;-71
2022/11/19 08:48:04;;;;;;;15.70;8.10;;;;;;;-1.17;88.10;98300.16;214881;1302;22573;-71
2022/11/19 08:53:06;;;;;;;18.70;9.40;;;;;;;-1.07;87.71;98299.25;214844;1310;23735;-72
2022/11/19 08:58:10;;;;;;;14.70;9.40;;;;;;;-0.97;87.48;98305.66;214756;1284;22518;-70
2022/11/19 09:03:12;;;;;;;14.60;7.60;;;;;;;-0.90;86.95;98309.98;214738;1286;22511;-69
2022/11/19 09:08:13;;;;;;;16.00;8.80;;;;;;;-0.79;87.12;98315.89;214723;1284;25483;-69
2022/11/19 09:13:15;;;;;;;17.40;8.20;;;;;;;-0.65;86.73;98325.90;214876;1284;27966;-71
2022/11/19 09:18:17;;;;;;;15.90;9.30;;;;;;;-0.54;86.18;98325.59;214376;1285;25541;-73
2022/11/19 09:23:20;;;;;;;16.30;8.40;;;;;;;-0.34;86.49;98326.96;214537;1310;25294;-71
2022/11/19 09:28:22;;;;;;;15.00;7.90;;;;;;;-0.19;86.02;98330.20;214844;1309;22532;-69
2022/11/19 09:33:24;;;;;;;13.80;7.80;;;;;;;-0.07;85.20;98334.81;214717;1298;26261;-70
2022/11/19 09:38:27;;;;;;;12.70;6.70;;;;;;;0.04;84.95;98339.69;214606;1285;24319;-69
2022/11/19 09:43:48;;;;;;;12.40;7.20;;;;;;;0.11;84.51;98339.31;214626;1286;22482;-71
2022/11/19 09:48:53;;;;;;;12.40;7.30;;;;;;;0.12;84.23;98339.66;214952;1310;22479;-71
2022/11/19 09:54:04;;;;;;;13.40;8.20;;;;;;;0.15;83.89;98340.30;214978;1278;22535;-69
2022/11/19 09:59:20;;;;;;;15.20;8.10;;;;;;;0.25;83.67;98338.04;214853;1285;25470;-71
2022/11/19 10:04:25;;;;;;;13.10;7.40;;;;;;;0.29;82.47;98331.27;214673;1299;24474;-71
2022/11/19 10:09:30;;;;;;;11.80;6.00;;;;;;;0.32;80.65;98328.70;214989;1285;24350;-73
2022/11/19 10:14:41;;;;;;;11.70;6.60;;;;;;;0.20;79.92;98333.27;214982;1284;25223;-74
2022/11/19 10:20:09;;;;;;;9.50;5.60;;;;;;;0.34;80.45;98333.16;215161;1295;22544;-72
2022/11/19 10:25:21;;;;;;;10.60;6.00;;;;;;;0.54;80.28;98329.83;215187;1285;22513;-73
2022/11/19 10:30:27;;;;;;;11.00;5.50;;;;;;;0.61;79.28;98331.11;214982;1285;24474;-77
2022/11/19 10:35:37;;;;;;;10.20;6.30;;;;;;;0.56;79.10;98332.42;214640;1288;24280;-71
2022/11/19 10:40:43;;;;;;;10.70;6.00;;;;;;;0.65;78.53;98324.23;214475;1290;145773;-72
2022/11/19 10:45:45;;;;;;;8.70;5.30;;;;;;;0.75;77.05;98322.58;214706;1284;22477;-71
2022/11/19 10:50:48;;;;;;;7.60;4.10;;;;;;;0.77;74.65;98327.40;214806;1284;26165;-73
2022/11/19 10:55:56;;;;;;;7.30;4.20;;;;;;;0.81;73.06;98328.02;214706;1284;22497;-75
2022/11/19 11:01:01;;;;;;;8.20;4.50;;;;;;;1.00;72.09;98326.23;214762;1286;22557;-72
2022/11/19 11:06:06;;;;;;;7.50;4.10;;;;;;;1.13;70.91;98324.47;214749;1285;22645;-72
2022/11/19 11:11:09;;;;;;;5.90;3.70;;;;;;;1.28;70.24;98324.14;214832;1278;24427;-72
2022/11/19 11:16:18;;;;;;;6.70;4.20;;;;;;;1.32;69.70;98317.89;214402;1309;22516;-71
2022/11/19 11:21:29;;;;;;;7.90;4.60;;;;;;;1.45;70.17;98318.34;214501;1310;25383;-71
2022/11/19 11:26:33;;;;;;;7.10;3.90;;;;;;;1.71;70.45;98311.39;214852;1281;22595;-72
2022/11/19 11:31:45;;;;;;;6.70;3.90;;;;;;;1.92;69.78;98303.52;214716;1288;22487;-73
2022/11/19 11:36:48;;;;;;;7.30;4.60;;;;;;;2.06;67.25;98301.95;214780;1285;25424;-72
2022/11/19 11:41:49;;;;;;;8.50;5.00;;;;;;;2.12;65.17;98298.66;214742;1284;22578;-74
2022/11/19 11:47:13;;;;;;;12.10;7.00;;;;;;;2.15;65.63;98302.70;214722;1310;22954;-77
2022/11/19 11:52:32;;;;;;;13.60;7.60;;;;;;;2.10;62.97;98307.38;215573;1286;24112;-75
2022/11/19 11:57:48;;;;;;;13.10;7.60;;;;;;;1.85;62.45;98314.56;215489;1285;22478;-74
2022/11/19 12:03:04;;;;;;;32.30;17.30;;;;;;;1.79;61.22;98318.66;214074;1310;22530;-71
2022/11/19 12:08:23;;;;;;;27.20;14.60;;;;;;;1.78;64.28;98323.33;214221;1314;22492;-72
2022/11/19 12:13:42;;;;;;;19.30;10.20;;;;;;;1.82;64.25;98322.08;214170;1313;23297;-70
2022/11/19 12:18:44;;;;;;;16.00;8.60;;;;;;;1.71;61.31;98321.43;214208;1309;22738;-71
2022/11/19 12:24:14;;;;;;;15.80;9.10;;;;;;;1.50;60.93;98324.54;214309;1296;22492;-71
2022/11/19 12:29:35;;;;;;;16.10;8.70;;;;;;;1.45;61.76;98323.31;214258;1310;22955;-73
2022/11/19 12:34:55;;;;;;;15.90;8.20;;;;;;;1.47;62.16;98328.94;214336;1310;24838;-73
2022/11/19 12:40:19;;;;;;;16.60;9.50;;;;;;;1.31;60.27;98326.66;214294;1309;22493;-73
2022/11/19 12:45:29;;;;;;;14.80;8.90;;;;;;;1.34;62.77;98331.20;214346;1309;23753;-71
2022/11/19 12:50:49;;;;;;;14.70;8.10;;;;;;;1.27;60.64;98332.83;214298;1310;23626;-71
2022/11/19 12:56:14;;;;;;;15.00;8.70;;;;;;;1.06;59.76;98330.89;214267;1310;22487;-72
2022/11/19 13:01:26;;;;;;;17.10;9.30;;;;;;;0.96;60.93;98340.33;214142;1313;22475;-71
2022/11/19 13:06:40;;;;;;;40.80;20.70;;;;;;;0.90;61.72;98341.34;214097;1309;23897;-72
2022/11/19 13:11:48;;;;;;;21.60;11.70;;;;;;;0.93;64.17;98342.20;213978;1310;24393;-71
2022/11/19 13:16:53;;;;;;;16.80;9.10;;;;;;;0.87;63.78;98341.77;214177;1310;24340;-71
2022/11/19 13:22:01;;;;;;;16.90;9.30;;;;;;;0.66;62.19;98344.50;214215;1309;24286;-70
2022/11/19 13:27:08;;;;;;;17.80;9.10;;;;;;;0.33;62.86;98344.52;214166;1300;22473;-71
2022/11/19 13:32:46;;;;;;;17.80;9.30;;;;;;;-0.03;63.55;98340.73;214163;1310;25352;-72
2022/11/19 13:38:01;;;;;;;21.30;10.00;;;;;;;-0.30;65.27;98338.88;213805;1309;22489;-72
2022/11/19 13:48:40;;;;;;;11.30;6.90;;;;;;;-0.65;66.49;98340.00;214117;1309;25491;-70
2022/11/19 13:53:45;;;;;;;13.70;7.20;;;;;;;-0.83;67.16;98344.77;214136;1309;23875;-71
2022/11/19 13:58:50;;;;;;;13.40;7.60;;;;;;;-1.02;67.78;98339.88;214046;1309;22527;-72
2022/11/19 14:04:26;;;;;;;17.30;7.20;;;;;;;-1.18;68.45;98345.43;214081;1310;22679;-71
2022/11/19 14:09:47;;;;;;;13.60;7.00;;;;;;;-1.40;68.95;98352.34;214036;1309;22473;-71
2022/11/19 14:26:21;;;;;;;18.70;8.20;;;;;;;-1.94;70.39;98357.20;214161;1309;22739;-70
2022/11/19 14:31:23;;;;;;;15.10;8.50;;;;;;;-2.09;70.72;98356.82;213954;1309;22964;-71
2022/11/19 14:36:28;;;;;;;18.50;9.00;;;;;;;-2.21;70.95;98360.52;214188;1309;24256;-70
2022/11/19 14:41:32;;;;;;;17.90;8.50;;;;;;;-2.33;71.54;98366.02;214276;1309;22493;-71
2022/11/19 14:46:44;;;;;;;18.20;8.30;;;;;;;-2.45;71.98;98359.54;214360;1309;25418;-70
2022/11/19 14:51:52;;;;;;;19.80;9.70;;;;;;;-2.55;72.14;98351.42;214132;1306;22509;-71
2022/11/19 14:57:12;;;;;;;19.70;7.80;;;;;;;-2.66;72.72;98357.02;214183;1309;23753;-71
2022/11/19 15:02:33;;;;;;;23.20;10.20;;;;;;;-2.77;72.97;98367.55;214060;1309;22471;-71
2022/11/19 15:07:38;;;;;;;21.20;10.00;;;;;;;-2.87;73.02;98367.48;214059;1307;22593;-71
2022/11/19 15:12:43;;;;;;;24.10;9.50;;;;;;;-2.94;73.28;98361.92;214146;1309;22609;-72
2022/11/19 15:17:49;;;;;;;26.50;10.80;;;;;;;-3.01;73.72;98368.29;214182;1309;23161;-71
2022/11/19 15:23:05;;;;;;;28.20;11.20;;;;;;;-3.07;73.92;98375.73;214024;1309;26268;-70
2022/11/19 15:28:17;;;;;;;24.30;10.70;;;;;;;-3.13;74.42;98380.60;214131;1309;22565;-70
2022/11/19 15:33:45;;;;;;;22.20;10.10;;;;;;;-3.20;74.55;98382.30;214184;1309;25440;-70
2022/11/19 15:38:56;;;;;;;27.80;11.80;;;;;;;-3.29;75.06;98386.15;214242;1309;22589;-69
2022/11/19 15:44:03;;;;;;;22.00;10.60;;;;;;;-3.35;75.13;98395.41;214006;1309;22594;-70
2022/11/19 15:49:25;;;;;;;24.70;10.30;;;;;;;-3.40;75.46;98400.02;214177;1309;22605;-69
2022/11/19 15:54:33;;;;;;;23.50;10.20;;;;;;;-3.43;75.66;98400.60;213967;1309;25905;-71
2022/11/19 15:59:37;;;;;;;29.40;13.20;;;;;;;-3.47;75.76;98399.84;214261;1309;22507;-70
2022/11/19 16:04:39;;;;;;;26.80;12.80;;;;;;;-3.52;76.05;98400.51;214117;1309;24206;-70
2022/11/19 16:09:41;;;;;;;23.10;10.60;;;;;;;-3.59;75.99;98400.19;213978;1309;25438;-68
2022/11/19 16:20:12;;;;;;;31.90;13.20;;;;;;;-3.73;76.34;98390.94;214203;1309;22640;-70
2022/11/19 16:25:30;;;;;;;30.50;12.80;;;;;;;-3.81;76.66;98392.95;214160;1309;22736;-71
2022/11/19 16:30:45;;;;;;;33.20;14.90;;;;;;;-3.89;76.96;98393.01;214278;1309;26333;-70
2022/11/19 16:35:48;;;;;;;38.70;16.80;;;;;;;-3.98;77.22;98383.84;214139;1309;25545;-70
2022/11/19 16:46:21;;;;;;;30.20;12.30;;;;;;;-4.09;78.10;98382.45;214006;1309;22515;-72
2022/11/19 16:51:30;;;;;;;33.40;14.60;;;;;;;-4.14;78.20;98380.11;214171;1309;24459;-69
2022/11/19 16:56:44;;;;;;;35.10;15.60;;;;;;;-4.18;78.45;98376.06;213982;1309;25219;-70
2022/11/19 17:01:52;;;;;;;33.40;15.10;;;;;;;-4.20;78.71;98373.67;214186;1309;26874;-71
2022/11/19 17:06:56;;;;;;;31.00;14.30;;;;;;;-4.22;78.61;98367.52;214006;1309;22601;-69
2022/11/19 17:12:16;;;;;;;38.00;15.10;;;;;;;-4.26;78.74;98361.28;214151;1309;23854;-70
2022/11/19 17:17:35;;;;;;;39.40;16.70;;;;;;;-4.32;79.06;98360.56;214093;1309;25372;-70
2022/11/19 17:22:41;;;;;;;31.40;13.70;;;;;;;-4.39;79.04;98362.26;214280;1309;23519;-69
2022/11/19 17:27:50;;;;;;;46.50;18.50;;;;;;;-4.45;79.49;98361.30;214286;1309;22582;-69
2022/11/19 17:32:53;;;;;;;60.10;23.30;;;;;;;-4.52;79.34;98365.31;214360;1302;26797;-69
2022/11/19 17:37:57;;;;;;;98.50;40.90;;;;;;;-4.56;79.97;98374.96;214285;1309;22859;-68
2022/11/19 17:48:22;;;;;;;60.20;25.20;;;;;;;-4.70;79.88;98375.58;214059;1309;24264;-68
2022/11/19 17:53:24;;;;;;;56.80;23.00;;;;;;;-4.76;80.15;98367.70;214014;1309;25504;-70
2022/11/19 17:58:26;;;;;;;62.30;26.40;;;;;;;-4.83;80.15;98367.52;214031;1309;22915;-69
2022/11/19 18:03:28;;;;;;;76.20;30.90;;;;;;;-4.90;80.59;98372.45;214009;1309;24430;-70
2022/11/19 18:08:31;;;;;;;102.40;41.00;;;;;;;-4.95;81.19;98371.36;214131;1309;24994;-69
2022/11/19 18:13:35;;;;;;;87.20;35.20;;;;;;;-4.99;81.46;98374.52;213883;1307;22514;-68
2022/11/19 18:18:37;;;;;;;91.70;36.30;;;;;;;-5.03;81.82;98374.64;214114;1309;25637;-69
2022/11/19 18:23:40;;;;;;;129.40;48.30;;;;;;;-5.09;81.81;98370.09;214052;1309;25643;-71
2022/11/19 18:28:42;;;;;;;122.40;47.60;;;;;;;-5.15;81.78;98374.30;214115;1309;22543;-71
2022/11/19 18:33:49;;;;;;;94.30;36.60;;;;;;;-5.22;81.97;98373.30;214189;1309;23025;-70
2022/11/19 18:38:54;;;;;;;84.30;34.50;;;;;;;-5.26;82.87;98381.33;214044;1309;22568;-70
2022/11/19 18:49:17;;;;;;;115.00;45.80;;;;;;;-5.29;83.20;98383.73;213992;1307;23121;-70
2022/11/19 18:54:19;;;;;;;98.50;43.50;;;;;;;-5.19;83.88;98384.92;214195;1309;22551;-69
2022/11/19 18:59:22;;;;;;;116.50;48.70;;;;;;;-5.14;83.82;98383.09;214077;1309;25493;-68
2022/11/19 19:04:25;;;;;;;91.40;40.30;;;;;;;-5.17;83.86;98384.77;214138;1309;22504;-68
2022/11/19 19:09:27;;;;;;;109.30;44.60;;;;;;;-5.21;83.85;98391.63;214123;1309;23815;-70
2022/11/19 19:14:29;;;;;;;101.00;42.30;;;;;;;-5.28;83.67;98386.06;213972;1309;22626;-69
2022/11/19 19:19:30;;;;;;;101.00;41.30;;;;;;;-5.37;83.64;98375.90;214257;1309;22813;-70
2022/11/19 19:24:32;;;;;;;84.30;36.40;;;;;;;-5.45;83.76;98366.73;214027;1309;24385;-68
2022/11/19 19:29:34;;;;;;;85.10;34.90;;;;;;;-5.51;83.88;98365.40;214063;1293;22494;-70
2022/11/19 19:34:36;;;;;;;71.90;30.70;;;;;;;-5.54;83.83;98370.52;213971;1301;22659;-69
2022/11/19 19:39:38;;;;;;;73.60;28.50;;;;;;;-5.58;83.87;98376.64;214043;1309;23555;-70
2022/11/19 19:44:40;;;;;;;70.40;28.00;;;;;;;-5.62;83.82;98376.06;213962;1309;22763;-69
2022/11/19 19:49:42;;;;;;;85.20;35.40;;;;;;;-5.65;84.04;98373.52;214190;1309;22914;-68
2022/11/19 19:54:44;;;;;;;85.90;33.10;;;;;;;-5.69;84.19;98370.13;214354;1309;23364;-71
2022/11/19 19:59:46;;;;;;;96.80;33.70;;;;;;;-5.75;84.47;98374.55;214159;1304;25527;-70
2022/11/19 20:04:48;;;;;;;105.40;42.20;;;;;;;-5.80;84.57;98376.93;214294;1309;22655;-70
2022/11/19 20:09:49;;;;;;;136.60;50.00;;;;;;;-5.84;84.69;98377.55;214101;1309;22867;-71
2022/11/19 20:14:51;;;;;;;124.30;47.60;;;;;;;-5.88;84.70;98373.77;214078;1309;24363;-70
2022/11/19 20:19:53;;;;;;;129.60;49.00;;;;;;;-5.91;84.85;98377.06;214102;1309;25910;-69
2022/11/19 20:24:55;;;;;;;131.00;48.90;;;;;;;-5.95;85.00;98382.19;214274;1309;24363;-70
2022/11/19 20:29:57;;;;;;;128.70;49.30;;;;;;;-5.97;85.26;98384.71;214065;1309;22680;-69
2022/11/19 20:35:00;;;;;;;133.80;51.20;;;;;;;-5.99;85.32;98386.44;214154;1309;22648;-68
2022/11/19 20:40:03;;;;;;;141.30;52.90;;;;;;;-6.02;85.39;98374.70;214142;1308;22473;-70
2022/11/19 20:45:07;;;;;;;138.90;52.40;;;;;;;-6.03;85.53;98371.89;214115;1309;25746;-70
2022/11/19 20:50:09;;;;;;;146.50;54.70;;;;;;;-6.06;85.57;98374.33;213997;1309;22659;-70
2022/11/19 20:55:11;;;;;;;156.30;56.00;;;;;;;-6.07;85.60;98369.26;214280;1309;22620;-72
2022/11/19 21:00:14;;;;;;;146.50;55.40;;;;;;;-6.07;85.78;98364.64;214034;1307;22647;-68
2022/11/19 21:05:16;;;;;;;137.10;53.60;;;;;;;-6.08;85.93;98367.00;214004;1309;22631;-69
2022/11/19 21:10:18;;;;;;;133.20;49.70;;;;;;;-6.09;86.05;98364.34;214168;1310;22644;-70
2022/11/19 21:15:20;;;;;;;136.40;51.60;;;;;;;-6.11;86.10;98363.05;214199;1309;22653;-69
2022/11/19 21:20:22;;;;;;;120.90;46.40;;;;;;;-6.14;86.03;98368.38;214183;1309;24631;-71
2022/11/19 21:25:24;;;;;;;122.00;48.40;;;;;;;-6.15;86.32;98373.30;214059;1309;22606;-70
2022/11/19 21:30:25;;;;;;;127.10;47.30;;;;;;;-6.17;86.54;98366.89;214119;1309;25570;-70
2022/11/19 21:35:27;;;;;;;148.80;55.00;;;;;;;-6.17;86.77;98361.52;213985;1309;22752;-71
2022/11/19 21:40:29;;;;;;;158.60;55.30;;;;;;;-6.17;86.96;98364.13;213895;1309;23364;-70
2022/11/19 21:45:31;;;;;;;155.70;58.90;;;;;;;-6.18;87.12;98359.04;214160;1309;22625;-70
2022/11/19 21:50:37;;;;;;;185.20;59.70;;;;;;;-6.19;87.13;98353.26;214044;1309;26686;-69
2022/11/19 21:55:43;;;;;;;171.90;61.40;;;;;;;-6.22;87.26;98360.65;214107;1309;22599;-69
2022/11/19 22:00:45;;;;;;;140.30;49.00;;;;;;;-6.22;87.44;98364.06;214235;1309;22619;-70
2022/11/19 22:05:58;;;;;;;187.30;64.20;;;;;;;-6.23;87.58;98364.66;214281;1309;24245;-70
2022/11/19 22:11:27;;;;;;;175.10;59.20;;;;;;;-6.26;87.59;98363.63;214072;1301;24423;-71
2022/11/19 22:16:23;;;;;;;125.90;48.10;;;;;;;-6.28;87.73;98362.90;214257;1309;22517;-70
2022/11/19 22:21:27;;;;;;;105.00;42.00;;;;;;;-6.29;87.73;98366.86;214100;1288;25603;-70
2022/11/19 22:26:30;;;;;;;142.90;54.80;;;;;;;-6.27;88.00;98365.23;214173;1309;23000;-70
2022/11/19 22:31:32;;;;;;;143.90;56.70;;;;;;;-6.23;88.06;98367.66;214235;1306;22681;-70
2022/11/19 22:36:34;;;;;;;187.30;67.70;;;;;;;-6.24;87.99;98365.81;214116;1309;24349;-70
2022/11/19 22:41:36;;;;;;;181.60;65.70;;;;;;;-6.28;87.90;98360.38;213963;1309;126937;-69
2022/11/19 22:46:38;;;;;;;190.00;73.00;;;;;;;-6.31;88.03;98365.67;214340;1309;22597;-71
2022/11/19 22:51:40;;;;;;;204.90;75.60;;;;;;;-6.34;88.16;98370.71;214253;1309;22825;-71
2022/11/19 22:56:42;;;;;;;198.20;74.80;;;;;;;-6.39;88.25;98364.49;214147;1309;25544;-70
2022/11/19 23:01:44;;;;;;;207.00;74.20;;;;;;;-6.43;88.08;98370.89;213882;1309;22670;-70
2022/11/19 23:06:45;;;;;;;209.70;76.00;;;;;;;-6.46;88.12;98365.28;214126;1309;24258;-71
2022/11/19 23:17:08;;;;;;;193.40;74.10;;;;;;;-6.48;88.29;98372.05;214020;1309;25463;-71
2022/11/19 23:22:10;;;;;;;202.30;74.10;;;;;;;-6.49;88.26;98369.04;214270;1309;24363;-70
2022/11/19 23:27:12;;;;;;;218.20;78.70;;;;;;;-6.50;88.34;98367.10;214140;1309;22551;-70
2022/11/19 23:32:21;;;;;;;203.90;75.50;;;;;;;-6.50;88.52;98369.23;214237;1305;22470;-69
2022/11/19 23:37:23;;;;;;;190.30;74.70;;;;;;;-6.51;88.58;98362.16;213888;1308;24276;-70
2022/11/19 23:42:25;;;;;;;189.90;73.00;;;;;;;-6.51;88.54;98361.04;214087;1309;25470;-70
2022/11/19 23:47:26;;;;;;;160.20;60.60;;;;;;;-6.52;88.65;98349.80;214215;1309;24354;-70
2022/11/19 23:52:28;;;;;;;121.50;46.50;;;;;;;-6.53;88.85;98349.67;214191;1309;22944;-70
2022/11/19 23:57:30;;;;;;;124.10;45.60;;;;;;;-6.51;88.92;98348.28;213950;1309;23215;-69
